createdAt,value
2022-12-25T00:02:19.825Z,7.23
2022-12-25T00:04:47.361Z,7.01
2022-12-25T00:07:16.154Z,6.75
2022-12-25T00:09:43.554Z,6.91
2022-12-25T00:12:11.032Z,7.17
2022-12-25T00:14:40.706Z,7.30
2022-12-25T00:17:08.163Z,7.26
2022-12-25T00:19:35.625Z,7.07
2022-12-25T00:22:03.102Z,7.17
2022-12-25T00:24:31.895Z,6.91
2022-12-25T00:26:59.223Z,7.07
2022-12-25T00:29:26.723Z,7.22
2022-12-25T00:31:54.271Z,7.04
2022-12-25T00:34:21.864Z,6.96
2022-12-25T00:36:51.251Z,6.79
2022-12-25T00:39:18.783Z,6.68
2022-12-25T00:42:05.401Z,6.78
2022-12-25T00:44:33.101Z,6.87
2022-12-25T00:47:00.699Z,6.89
2022-12-25T00:49:28.258Z,6.60
2022-12-25T00:51:55.847Z,6.71
2022-12-25T00:54:23.313Z,7.09
2022-12-25T00:56:52.155Z,7.11
2022-12-25T00:59:19.626Z,7.18
2022-12-25T01:01:47.338Z,7.17
2022-12-25T01:04:14.945Z,7.10
2022-12-25T01:06:42.457Z,7.19
2022-12-25T01:09:26.895Z,6.84
2022-12-25T01:11:58.599Z,7.00
2022-12-25T01:14:26.071Z,7.06
2022-12-25T01:16:53.598Z,7.15
2022-12-25T01:19:21.099Z,7.06
2022-12-25T01:21:48.564Z,7.10
2022-12-25T01:24:16.017Z,7.13
2022-12-25T01:26:43.449Z,6.59
2022-12-25T01:29:12.258Z,6.99
2022-12-25T01:31:39.763Z,6.76
2022-12-25T01:34:07.255Z,7.02
2022-12-25T01:36:34.722Z,6.91
2022-12-25T01:39:02.182Z,6.57
2022-12-25T01:41:29.671Z,6.71
2022-12-25T01:44:00.594Z,6.37
2022-12-25T01:46:29.784Z,6.77
2022-12-25T01:48:59.966Z,6.55
2022-12-25T01:51:31.157Z,6.42
2022-12-25T01:54:03.101Z,6.73
2022-12-25T01:56:31.281Z,6.97
2022-12-25T01:59:00.177Z,7.05
2022-12-25T02:01:29.205Z,7.07
2022-12-25T02:04:03.589Z,7.05
2022-12-25T02:06:31.571Z,7.01
2022-12-25T02:09:00.048Z,7.03
2022-12-25T02:11:45.413Z,7.04
2022-12-25T02:14:13.008Z,6.99
2022-12-25T02:16:58.174Z,6.98
2022-12-25T02:19:38.179Z,7.02
2022-12-25T02:22:23.999Z,6.75
2022-12-25T02:25:05.177Z,6.89
2022-12-25T02:27:50.360Z,6.97
2022-12-25T02:30:18.098Z,6.91
2022-12-25T02:32:51.665Z,6.93
2022-12-25T02:35:25.076Z,6.90
2022-12-25T02:37:56.547Z,6.77
2022-12-25T02:40:27.645Z,6.30
2022-12-25T02:43:17.881Z,6.61
2022-12-25T02:46:07.714Z,6.72
2022-12-25T02:48:56.092Z,6.87
2022-12-25T02:51:46.220Z,6.85
2022-12-25T02:54:35.200Z,6.88
2022-12-25T02:57:23.842Z,6.78
2022-12-25T03:00:14.445Z,6.86
2022-12-25T03:03:01.911Z,6.84
2022-12-25T03:05:50.271Z,6.75
2022-12-25T03:08:25.451Z,6.84
2022-12-25T03:11:16.126Z,6.63
2022-12-25T03:13:46.309Z,6.75
2022-12-25T03:16:32.704Z,6.74
2022-12-25T03:19:00.861Z,6.69
2022-12-25T03:21:42.613Z,6.66
2022-12-25T03:24:28.086Z,6.78
2022-12-25T03:26:58.284Z,6.75
2022-12-25T03:29:45.147Z,6.69
2022-12-25T03:32:23.787Z,6.71
2022-12-25T03:35:18.615Z,6.67
2022-12-25T03:38:15.122Z,6.68
2022-12-25T03:41:11.936Z,6.52
2022-12-25T03:44:06.668Z,6.59
2022-12-25T03:46:56.355Z,6.64
2022-12-25T03:49:48.815Z,6.64
2022-12-25T03:52:37.591Z,6.62
2022-12-25T03:55:27.878Z,6.58
2022-12-25T03:58:13.155Z,6.41
2022-12-25T04:00:58.545Z,6.53
2022-12-25T04:03:43.989Z,6.53
2022-12-25T04:06:30.800Z,6.51
2022-12-25T04:09:16.060Z,6.49
2022-12-25T04:12:03.473Z,6.53
2022-12-25T04:14:48.667Z,6.50
2022-12-25T04:17:33.901Z,6.51
2022-12-25T04:20:19.167Z,6.45
2022-12-25T04:23:05.616Z,6.43
2022-12-25T04:25:50.957Z,6.41
2022-12-25T04:28:36.339Z,6.40
2022-12-25T04:31:21.778Z,6.35
2022-12-25T04:34:06.997Z,6.33
2022-12-25T04:36:34.523Z,6.30
2022-12-25T04:39:03.481Z,6.31
2022-12-25T04:41:30.975Z,6.27
2022-12-25T04:43:58.560Z,6.26
2022-12-25T04:46:26.087Z,6.20
2022-12-25T04:48:53.581Z,6.21
2022-12-25T04:51:22.734Z,6.19
2022-12-25T04:53:51.270Z,6.10
2022-12-25T04:56:21.589Z,6.10
2022-12-25T04:58:49.872Z,6.14
2022-12-25T05:01:17.919Z,6.08
2022-12-25T05:03:45.560Z,6.06
2022-12-25T05:06:13.868Z,6.07
2022-12-25T05:08:41.422Z,5.98
2022-12-25T05:11:10.200Z,6.01
2022-12-25T05:13:39.491Z,5.96
2022-12-25T05:16:08.121Z,5.96
2022-12-25T05:18:36.393Z,5.95
2022-12-25T05:21:04.363Z,5.92
2022-12-25T05:23:32.151Z,5.89
2022-12-25T05:25:59.623Z,5.82
2022-12-25T05:28:27.087Z,5.74
2022-12-25T05:30:58.469Z,5.81
2022-12-25T05:33:26.013Z,5.68
2022-12-25T05:35:53.463Z,5.75
2022-12-25T05:38:20.995Z,5.69
2022-12-25T05:40:48.462Z,5.53
2022-12-25T05:43:15.922Z,5.60
2022-12-25T05:45:43.401Z,5.68
2022-12-25T05:48:12.282Z,5.74
2022-12-25T05:50:39.784Z,5.50
2022-12-25T05:53:08.987Z,5.32
2022-12-25T05:55:37.197Z,5.56
2022-12-25T05:58:05.497Z,5.48
2022-12-25T06:00:33.251Z,5.52
2022-12-25T06:03:01.330Z,5.29
2022-12-25T06:05:32.847Z,5.58
2022-12-25T06:08:00.311Z,5.67
2022-12-25T06:10:27.734Z,5.72
2022-12-25T06:12:55.529Z,5.67
2022-12-25T06:15:22.969Z,5.66
2022-12-25T06:17:50.408Z,5.52
2022-12-25T06:20:17.906Z,5.59
2022-12-25T06:22:46.782Z,5.67
2022-12-25T06:25:14.300Z,5.71
2022-12-25T06:27:41.797Z,5.70
2022-12-25T06:30:10.737Z,5.68
2022-12-25T06:32:38.276Z,5.74
2022-12-25T06:35:06.952Z,5.73
2022-12-25T06:37:34.387Z,5.73
2022-12-25T06:40:05.712Z,5.67
2022-12-25T06:42:33.183Z,5.69
2022-12-25T06:45:00.632Z,5.66
2022-12-25T06:47:28.085Z,5.50
2022-12-25T06:49:55.757Z,5.59
2022-12-25T06:52:23.217Z,5.68
2022-12-25T06:54:50.653Z,5.25
2022-12-25T06:57:19.727Z,5.38
2022-12-25T06:59:52.974Z,5.55
2022-12-25T07:02:24.801Z,5.57
2022-12-25T07:04:53.504Z,5.78
2022-12-25T07:07:22.122Z,5.70
2022-12-25T07:09:49.597Z,5.75
2022-12-25T07:12:20.721Z,5.72
2022-12-25T07:14:51.923Z,5.60
2022-12-25T07:17:21.118Z,5.58
2022-12-25T07:19:48.593Z,5.67
2022-12-25T07:22:16.835Z,5.62
2022-12-25T07:24:44.508Z,5.70
2022-12-25T07:27:12.183Z,5.78
2022-12-25T07:29:41.021Z,5.78
2022-12-25T07:32:08.380Z,5.60
2022-12-25T07:34:35.676Z,5.57
2022-12-25T07:37:03.279Z,5.68
2022-12-25T07:39:31.025Z,5.54
2022-12-25T07:41:58.542Z,5.55
2022-12-25T07:44:26.195Z,5.77
2022-12-25T07:46:55.074Z,5.75
2022-12-25T07:49:22.532Z,5.67
2022-12-25T07:51:49.980Z,5.59
2022-12-25T07:54:17.594Z,5.59
2022-12-25T07:56:45.355Z,5.47
2022-12-25T07:59:12.939Z,5.69
2022-12-25T08:01:40.635Z,5.53
2022-12-25T08:04:11.573Z,5.66
2022-12-25T08:06:39.270Z,5.69
2022-12-25T08:09:09.006Z,5.50
2022-12-25T08:11:36.714Z,5.52
2022-12-25T08:14:07.023Z,5.63
2022-12-25T08:16:34.791Z,5.66
2022-12-25T08:19:02.342Z,5.80
2022-12-25T08:21:31.154Z,5.72
2022-12-25T08:23:58.462Z,5.67
2022-12-25T08:26:25.985Z,5.62
2022-12-25T08:28:53.440Z,5.80
2022-12-25T08:31:23.592Z,5.76
2022-12-25T08:33:53.591Z,5.90
2022-12-25T08:36:21.244Z,5.84
2022-12-25T08:38:50.350Z,5.87
2022-12-25T08:41:18.805Z,5.96
2022-12-25T08:43:46.695Z,5.96
2022-12-25T08:46:14.323Z,5.96
2022-12-25T08:48:42.922Z,6.04
2022-12-25T08:51:14.373Z,6.01
2022-12-25T08:53:42.111Z,6.04
2022-12-25T08:56:11.313Z,6.04
2022-12-25T08:58:38.857Z,6.03
2022-12-25T09:01:06.928Z,6.11
2022-12-25T09:03:35.076Z,6.10
2022-12-25T09:06:04.276Z,6.14
2022-12-25T09:08:31.828Z,6.21
2022-12-25T09:11:02.987Z,6.26
2022-12-25T09:13:32.217Z,6.25
2022-12-25T09:15:59.752Z,6.32
2022-12-25T09:18:27.474Z,6.29
2022-12-25T09:21:02.301Z,6.36
2022-12-25T09:23:30.110Z,6.33
2022-12-25T09:26:02.548Z,6.31
2022-12-25T09:28:30.079Z,6.37
2022-12-25T09:30:59.112Z,6.45
2022-12-25T09:33:27.011Z,6.43
2022-12-25T09:35:55.911Z,6.51
2022-12-25T09:38:23.969Z,6.57
2022-12-25T09:40:59.452Z,6.54
2022-12-25T09:43:28.976Z,6.64
2022-12-25T09:46:00.389Z,6.60
2022-12-25T09:48:31.425Z,6.69
2022-12-25T09:51:04.150Z,6.63
2022-12-25T09:53:38.702Z,6.69
2022-12-25T09:56:11.488Z,6.70
2022-12-25T09:58:39.139Z,6.71
2022-12-25T10:01:17.832Z,6.76
2022-12-25T10:04:02.843Z,6.88
2022-12-25T10:06:43.930Z,6.82
2022-12-25T10:09:24.389Z,6.75
2022-12-25T10:12:06.784Z,6.87
2022-12-25T10:14:40.817Z,7.02
2022-12-25T10:17:27.035Z,7.02
2022-12-25T10:20:04.097Z,6.97
2022-12-25T10:22:36.916Z,7.03
2022-12-25T10:25:06.825Z,7.07
2022-12-25T10:27:41.221Z,7.03
2022-12-25T10:30:15.957Z,7.25
2022-12-25T10:32:46.359Z,7.15
2022-12-25T10:35:15.330Z,7.10
2022-12-25T10:37:45.737Z,7.17
2022-12-25T10:40:30.758Z,7.39
2022-12-25T10:43:06.251Z,7.23
2022-12-25T10:45:43.963Z,7.37
2022-12-25T10:48:21.399Z,7.65
2022-12-25T10:50:49.304Z,7.56
2022-12-25T10:53:22.035Z,7.51
2022-12-25T10:56:01.473Z,7.49
2022-12-25T10:58:30.058Z,7.66
2022-12-25T11:01:00.245Z,7.90
2022-12-25T11:03:32.159Z,7.85
2022-12-25T11:06:00.158Z,7.60
2022-12-25T11:08:30.486Z,7.67
2022-12-25T11:11:05.887Z,7.94
2022-12-25T11:13:35.844Z,7.68
2022-12-25T11:16:07.026Z,7.62
2022-12-25T11:18:44.840Z,7.94
2022-12-25T11:21:25.266Z,7.68
2022-12-25T11:23:59.061Z,7.77
2022-12-25T11:26:28.512Z,8.02
2022-12-25T11:29:00.083Z,7.91
2022-12-25T11:31:36.551Z,8.08
2022-12-25T11:34:08.660Z,8.07
2022-12-25T11:36:45.214Z,7.95
2022-12-25T11:39:22.800Z,8.20
2022-12-25T11:41:54.713Z,8.27
2022-12-25T11:44:34.431Z,8.10
2022-12-25T11:47:12.680Z,8.04
2022-12-25T11:49:50.076Z,8.33
2022-12-25T11:52:20.330Z,8.09
2022-12-25T11:54:56.690Z,8.17
2022-12-25T11:57:25.265Z,8.15
2022-12-25T11:59:58.484Z,8.21
2022-12-25T12:02:34.007Z,8.32
2022-12-25T12:05:19.574Z,8.24
2022-12-25T12:07:58.328Z,8.26
2022-12-25T12:10:33.731Z,8.26
2022-12-25T12:13:21.040Z,8.11
2022-12-25T12:15:50.209Z,8.35
2022-12-25T12:18:24.089Z,8.31
2022-12-25T12:21:05.378Z,8.70
2022-12-25T12:23:36.880Z,8.59
2022-12-25T12:26:05.560Z,8.90
2022-12-25T12:28:38.920Z,8.92
2022-12-25T12:31:07.459Z,8.69
2022-12-25T12:33:39.099Z,8.92
2022-12-25T12:36:12.611Z,8.89
2022-12-25T12:38:43.346Z,8.61
2022-12-25T12:41:13.739Z,8.53
2022-12-25T12:43:44.338Z,8.80
2022-12-25T12:46:26.200Z,8.60
2022-12-25T12:49:10.123Z,8.71
2022-12-25T12:51:39.341Z,8.56
2022-12-25T12:54:20.317Z,8.54
2022-12-25T12:57:01.078Z,8.64
2022-12-25T12:59:40.930Z,8.78
2022-12-25T13:02:27.377Z,8.69
2022-12-25T13:05:00.559Z,8.83
2022-12-25T13:07:49.539Z,8.60
2022-12-25T13:10:26.710Z,8.78
2022-12-25T13:12:56.029Z,9.05
2022-12-25T13:15:27.956Z,8.88
2022-12-25T13:18:00.314Z,9.03
2022-12-25T13:20:39.663Z,8.79
2022-12-25T13:23:25.948Z,8.90
2022-12-25T13:25:54.730Z,9.09
2022-12-25T13:28:26.127Z,9.02
2022-12-25T13:30:53.663Z,8.88
2022-12-25T13:33:21.201Z,8.81
2022-12-25T13:35:48.857Z,8.93
2022-12-25T13:38:18.822Z,8.91
2022-12-25T13:41:12.124Z,8.90
2022-12-25T13:43:43.209Z,8.93
2022-12-25T13:46:13.646Z,9.24
2022-12-25T13:48:41.267Z,8.96
2022-12-25T13:51:16.590Z,8.81
2022-12-25T13:53:45.509Z,8.96
2022-12-25T13:56:15.937Z,8.86
2022-12-25T13:58:45.441Z,9.01
2022-12-25T14:01:31.927Z,9.16
2022-12-25T14:04:00.532Z,9.03
2022-12-25T14:06:29.920Z,8.93
2022-12-25T14:09:00.909Z,8.95
2022-12-25T14:11:30.397Z,8.99
2022-12-25T14:14:00.729Z,8.86
2022-12-25T14:16:29.046Z,8.74
2022-12-25T14:18:59.037Z,8.75
2022-12-25T14:21:30.844Z,8.82
2022-12-25T14:24:00.484Z,9.02
2022-12-25T14:26:30.374Z,8.66
2022-12-25T14:29:15.344Z,8.84
2022-12-25T14:31:46.300Z,8.87
2022-12-25T14:34:18.658Z,8.78
2022-12-25T14:36:46.485Z,8.67
2022-12-25T14:39:28.267Z,8.57
2022-12-25T14:41:55.926Z,8.54
2022-12-25T14:44:32.115Z,8.69
2022-12-25T14:47:14.631Z,8.53
2022-12-25T14:49:42.202Z,8.48
2022-12-25T14:52:17.815Z,8.40
2022-12-25T14:54:49.212Z,8.43
2022-12-25T14:57:26.982Z,8.41
2022-12-25T14:59:59.842Z,8.35
2022-12-25T15:02:27.598Z,8.29
2022-12-25T15:04:55.307Z,8.23
2022-12-25T15:07:27.546Z,8.21
2022-12-25T15:10:36.745Z,8.31
2022-12-25T15:12:48.111Z,8.27
2022-12-25T15:15:15.630Z,8.21
2022-12-25T15:17:43.177Z,8.33
2022-12-25T15:20:16.059Z,8.28
2022-12-25T15:23:10.161Z,8.31
2022-12-25T15:25:32.977Z,8.39
2022-12-25T15:28:00.455Z,8.28
2022-12-25T15:30:28.053Z,8.31
2022-12-25T15:32:55.595Z,8.24
2022-12-25T15:35:23.321Z,8.26
2022-12-25T15:37:50.793Z,8.28
2022-12-25T15:40:19.653Z,8.22
2022-12-25T15:42:49.899Z,8.17
2022-12-25T15:45:21.304Z,8.17
2022-12-25T15:47:49.119Z,8.09
2022-12-25T15:50:18.672Z,8.06
2022-12-25T15:52:46.905Z,8.15
2022-12-25T15:55:15.373Z,8.16
2022-12-25T15:57:44.577Z,8.04
2022-12-25T16:00:22.510Z,8.10
2022-12-25T16:02:50.380Z,7.98
2022-12-25T16:05:18.111Z,7.97
2022-12-25T16:07:45.538Z,7.92
2022-12-25T16:10:16.818Z,7.85
2022-12-25T16:12:45.215Z,7.93
2022-12-25T16:15:14.502Z,7.88
2022-12-25T16:17:43.504Z,7.73
2022-12-25T16:20:11.924Z,7.76
2022-12-25T16:22:42.217Z,7.79
2022-12-25T16:25:14.564Z,7.70
2022-12-25T16:27:42.176Z,7.69
2022-12-25T16:30:11.650Z,7.64
2022-12-25T16:32:39.137Z,7.64
2022-12-25T16:35:09.112Z,7.47
2022-12-25T16:37:36.669Z,7.47
2022-12-25T16:40:05.310Z,7.38
2022-12-25T16:42:35.079Z,7.31
2022-12-25T16:45:02.594Z,7.41
2022-12-25T16:47:30.773Z,7.34
2022-12-25T16:49:58.225Z,7.54
2022-12-25T16:52:27.120Z,7.46
2022-12-25T16:54:54.612Z,7.40
2022-12-25T16:57:22.082Z,7.43
2022-12-25T16:59:49.979Z,7.53
2022-12-25T17:02:19.410Z,7.58
2022-12-25T17:04:47.779Z,7.56
2022-12-25T17:07:17.054Z,7.51
2022-12-25T17:09:48.433Z,7.44
2022-12-25T17:12:16.505Z,7.50
2022-12-25T17:14:44.239Z,7.48
2022-12-25T17:17:11.725Z,7.53
2022-12-25T17:19:39.176Z,7.48
2022-12-25T17:22:07.267Z,7.59
2022-12-25T17:24:36.274Z,7.56
2022-12-25T17:27:08.404Z,7.43
2022-12-25T17:29:36.400Z,7.44
2022-12-25T17:32:04.010Z,7.49
2022-12-25T17:34:31.432Z,7.45
2022-12-25T17:36:58.887Z,7.44
2022-12-25T17:39:26.465Z,7.46
2022-12-25T17:41:53.927Z,7.50
2022-12-25T17:44:22.824Z,7.46
2022-12-25T17:46:51.106Z,7.39
2022-12-25T17:49:21.091Z,7.44
2022-12-25T17:51:49.187Z,7.41
2022-12-25T17:54:16.699Z,7.38
2022-12-25T17:56:44.205Z,7.19
2022-12-25T17:59:18.152Z,7.24
2022-12-25T18:01:48.904Z,7.14
2022-12-25T18:04:16.653Z,7.34
2022-12-25T18:06:44.139Z,7.22
2022-12-25T18:09:12.787Z,7.34
2022-12-25T18:11:44.321Z,7.43
2022-12-25T18:14:15.307Z,7.48
2022-12-25T18:16:44.880Z,7.43
2022-12-25T18:19:17.517Z,7.48
2022-12-25T18:21:45.002Z,7.40
2022-12-25T18:24:12.461Z,7.48
2022-12-25T18:26:40.154Z,7.47
2022-12-25T18:29:07.856Z,7.62
2022-12-25T18:31:35.827Z,7.54
2022-12-25T18:34:03.390Z,7.56
2022-12-25T18:36:32.290Z,7.64
2022-12-25T18:39:00.151Z,7.70
2022-12-25T18:41:30.140Z,7.60
2022-12-25T18:44:00.216Z,7.57
2022-12-25T18:46:28.410Z,7.44
2022-12-25T18:48:57.046Z,7.46
2022-12-25T18:51:27.528Z,7.42
2022-12-25T18:54:01.490Z,7.50
2022-12-25T18:56:28.958Z,7.52
2022-12-25T18:58:56.402Z,7.46
2022-12-25T19:01:26.092Z,7.40
2022-12-25T19:04:00.223Z,7.39
2022-12-25T19:06:33.055Z,7.34
2022-12-25T19:09:09.173Z,7.28
2022-12-25T19:11:42.039Z,7.25
2022-12-25T19:14:11.715Z,7.24
2022-12-25T19:16:39.383Z,7.17
2022-12-25T19:19:06.858Z,7.05
2022-12-25T19:21:34.305Z,7.15
2022-12-25T19:24:03.099Z,6.79
2022-12-25T19:26:30.653Z,6.79
2022-12-25T19:28:58.123Z,7.00
2022-12-25T19:31:25.719Z,7.01
2022-12-25T19:33:53.227Z,7.01
2022-12-25T19:36:21.091Z,6.95
2022-12-25T19:38:48.676Z,7.24
2022-12-25T19:41:19.580Z,7.07
2022-12-25T19:43:49.720Z,7.20
2022-12-25T19:46:20.947Z,7.24
2022-12-25T19:48:48.842Z,7.28
2022-12-25T19:51:17.979Z,7.19
2022-12-25T19:53:48.459Z,7.28
2022-12-25T19:56:17.545Z,7.34
2022-12-25T19:58:45.823Z,7.37
2022-12-25T20:01:17.198Z,7.40
2022-12-25T20:03:46.648Z,7.40
2022-12-25T20:06:18.633Z,7.44
2022-12-25T20:08:46.514Z,7.38
2022-12-25T20:11:13.981Z,7.41
2022-12-25T20:13:42.913Z,7.38
2022-12-25T20:16:10.867Z,7.41
2022-12-25T20:18:38.917Z,7.41
2022-12-25T20:21:09.260Z,7.41
2022-12-25T20:23:36.839Z,7.42
2022-12-25T20:26:05.769Z,7.42
2022-12-25T20:28:35.686Z,7.36
2022-12-25T20:31:08.251Z,7.37
2022-12-25T20:33:37.467Z,7.33
2022-12-25T20:36:06.058Z,7.35
2022-12-25T20:38:33.750Z,7.37
2022-12-25T20:41:26.375Z,7.38
2022-12-25T20:43:50.312Z,7.30
2022-12-25T20:46:19.331Z,6.98
2022-12-25T20:48:47.927Z,6.85
2022-12-25T20:51:17.602Z,6.51
2022-12-25T20:53:45.987Z,6.43
2022-12-25T20:56:15.955Z,6.39
2022-12-25T20:58:43.728Z,6.52
2022-12-25T21:01:14.523Z,6.99
2022-12-25T21:03:43.489Z,7.11
2022-12-25T21:06:11.516Z,7.16
2022-12-25T21:08:40.622Z,7.16
2022-12-25T21:11:09.146Z,7.24
2022-12-25T21:13:40.215Z,7.19
2022-12-25T21:16:09.629Z,7.15
2022-12-25T21:18:37.272Z,7.19
2022-12-25T21:21:07.745Z,7.16
2022-12-25T21:23:36.984Z,7.23
2022-12-25T21:26:11.562Z,7.21
2022-12-25T21:28:39.074Z,7.26
2022-12-25T21:31:07.746Z,7.21
2022-12-25T21:33:52.865Z,7.24
2022-12-25T21:36:24.768Z,7.23
2022-12-25T21:38:57.608Z,7.21
2022-12-25T21:41:25.671Z,7.19
2022-12-25T21:43:53.556Z,7.21
2022-12-25T21:46:21.096Z,7.20
2022-12-25T21:48:49.120Z,7.16
2022-12-25T21:51:36.237Z,7.21
2022-12-25T21:54:08.538Z,7.19
2022-12-25T21:56:43.592Z,7.14
2022-12-25T21:59:15.855Z,7.07
2022-12-25T22:01:44.357Z,7.13
2022-12-25T22:04:12.947Z,7.14
2022-12-25T22:06:58.096Z,7.13
2022-12-25T22:09:27.060Z,7.09
2022-12-25T22:12:12.402Z,7.10
2022-12-25T22:14:57.159Z,7.05
2022-12-25T22:17:44.188Z,7.11
2022-12-25T22:20:14.090Z,7.11
2022-12-25T22:22:41.572Z,7.18
2022-12-25T22:25:11.290Z,7.15
2022-12-25T22:27:40.383Z,7.23
2022-12-25T22:30:10.476Z,7.19
2022-12-25T22:32:38.050Z,7.22
2022-12-25T22:35:06.403Z,7.21
2022-12-25T22:37:33.928Z,7.20
2022-12-25T22:40:02.398Z,7.22
2022-12-25T22:42:31.434Z,7.22
2022-12-25T22:44:59.227Z,7.20
2022-12-25T22:47:26.712Z,7.24
2022-12-25T22:49:54.321Z,7.25
2022-12-25T22:52:21.988Z,7.20
2022-12-25T22:54:49.440Z,7.23
2022-12-25T22:57:16.976Z,7.26
2022-12-25T22:59:45.845Z,7.20
2022-12-25T23:02:13.540Z,7.19
2022-12-25T23:04:41.146Z,7.23
2022-12-25T23:07:08.642Z,7.19
2022-12-25T23:09:36.066Z,7.13
2022-12-25T23:12:03.625Z,7.18
2022-12-25T23:14:39.637Z,7.19
2022-12-25T23:17:30.813Z,7.19
2022-12-25T23:20:17.079Z,7.15
2022-12-25T23:23:02.303Z,7.14
2022-12-25T23:25:48.327Z,7.21
2022-12-25T23:28:35.852Z,7.23
2022-12-25T23:31:02.465Z,7.25
2022-12-25T23:33:31.427Z,7.27
2022-12-25T23:35:58.903Z,7.20
2022-12-25T23:38:26.380Z,7.25
2022-12-25T23:40:53.846Z,7.19
2022-12-25T23:43:21.296Z,7.23
2022-12-25T23:45:48.763Z,7.23
2022-12-25T23:48:16.344Z,7.18
2022-12-25T23:50:45.136Z,7.17
2022-12-25T23:53:12.498Z,7.21
2022-12-25T23:55:42.120Z,7.18
2022-12-25T23:58:09.817Z,7.16
